createdAt,value
2022-09-28T00:01:23.838Z,6.07
2022-09-28T00:03:59.932Z,5.75
2022-09-28T00:06:30.560Z,5.13
2022-09-28T00:08:58.850Z,4.68
2022-09-28T00:11:30.949Z,5.50
2022-09-28T00:14:02.478Z,1.65
2022-09-28T00:16:36.388Z,3.38
2022-09-28T00:19:05.360Z,5.53
2022-09-28T00:21:35.056Z,6.18
2022-09-28T00:24:17.723Z,4.90
2022-09-28T00:26:57.006Z,4.82
2022-09-28T00:29:29.943Z,8.90
2022-09-28T00:32:02.534Z,8.80
2022-09-28T00:34:36.375Z,5.82
2022-09-28T00:37:08.988Z,4.32
2022-09-28T00:39:39.146Z,6.25
2022-09-28T00:42:19.381Z,5.57
2022-09-28T00:45:00.298Z,8.05
2022-09-28T00:47:44.608Z,6.18
2022-09-28T00:50:29.329Z,6.00
2022-09-28T00:53:21.598Z,5.07
2022-09-28T00:56:04.280Z,5.60
2022-09-28T00:58:39.673Z,3.67
2022-09-28T01:01:07.891Z,4.43
2022-09-28T01:03:35.951Z,3.03
2022-09-28T01:06:05.146Z,9.73
2022-09-28T01:08:34.409Z,2.92
2022-09-28T01:11:03.820Z,6.18
2022-09-28T01:13:33.503Z,2.15
2022-09-28T01:16:11.667Z,3.67
2022-09-28T01:18:58.259Z,3.03
2022-09-28T01:21:29.291Z,5.68
2022-09-28T01:24:14.622Z,3.60
2022-09-28T01:26:47.601Z,3.25
2022-09-28T01:29:18.439Z,3.47
2022-09-28T01:31:52.445Z,4.90
2022-09-28T01:34:34.566Z,3.28
2022-09-28T01:37:06.569Z,2.85
2022-09-28T01:39:39.639Z,7.63
2022-09-28T01:42:16.368Z,9.05
2022-09-28T01:44:50.622Z,2.57
2022-09-28T01:47:24.203Z,3.30
2022-09-28T01:50:07.355Z,4.35
2022-09-28T01:52:44.412Z,1.48
2022-09-28T01:57:57.839Z,3.33
2022-09-28T02:00:26.436Z,0.68
2022-09-28T02:03:12.659Z,1.00
2022-09-28T02:05:55.783Z,2.28
2022-09-28T02:08:33.792Z,2.92
2022-09-28T02:11:15.547Z,2.38
2022-09-28T02:13:52.875Z,2.40
2022-09-28T02:16:47.433Z,1.52
2022-09-28T02:19:23.739Z,1.20
2022-09-28T02:22:12.414Z,0.55
2022-09-28T02:24:46.845Z,0.40
2022-09-28T02:27:40.378Z,0.20
2022-09-28T02:30:09.532Z,0.10
2022-09-28T02:32:41.071Z,2.67
2022-09-28T02:35:12.798Z,0.00
2022-09-28T02:37:40.944Z,0.10
2022-09-28T02:40:38.956Z,0.43
2022-09-28T02:43:17.562Z,0.52
2022-09-28T02:45:48.756Z,0.47
2022-09-28T02:48:43.474Z,0.57
2022-09-28T02:52:09.852Z,0.47
2022-09-28T02:54:48.612Z,0.20
2022-09-28T02:57:37.627Z,0.63
2022-09-28T03:00:12.048Z,1.38
2022-09-28T03:03:16.388Z,0.43
2022-09-28T03:06:10.524Z,0.20
2022-09-28T03:09:00.826Z,1.15
2022-09-28T03:11:40.272Z,1.20
2022-09-28T03:14:09.849Z,4.32
2022-09-28T03:16:47.270Z,1.08
2022-09-28T03:19:22.042Z,1.55
2022-09-28T03:21:49.928Z,1.75
2022-09-28T03:24:17.351Z,1.70
2022-09-28T03:26:45.531Z,0.75
2022-09-28T03:29:14.370Z,0.60
2022-09-28T03:31:45.414Z,0.20
2022-09-28T03:34:15.580Z,0.77
2022-09-28T03:36:43.395Z,0.50
2022-09-28T03:39:10.835Z,1.40
2022-09-28T03:41:39.155Z,0.85
2022-09-28T03:44:06.822Z,2.40
2022-09-28T03:46:35.089Z,6.88
2022-09-28T03:49:09.854Z,4.53
2022-09-28T03:51:40.913Z,5.15
2022-09-28T03:54:09.355Z,2.33
2022-09-28T03:56:37.439Z,3.78
2022-09-28T03:59:05.853Z,3.22
2022-09-28T04:01:33.951Z,2.22
2022-09-28T04:04:01.989Z,5.15
2022-09-28T04:06:30.854Z,1.00
2022-09-28T04:08:58.401Z,4.70
2022-09-28T04:11:26.407Z,1.58
2022-09-28T04:13:53.796Z,0.38
2022-09-28T04:16:21.896Z,4.45
2022-09-28T04:19:09.491Z,2.08
2022-09-28T04:21:47.119Z,0.73
2022-09-28T04:24:15.602Z,2.88
2022-09-28T04:26:43.051Z,1.33
2022-09-28T04:29:16.110Z,2.58
2022-09-28T04:31:50.872Z,1.50
2022-09-28T04:34:22.676Z,1.67
2022-09-28T04:36:51.356Z,1.88
2022-09-28T04:39:19.573Z,1.58
2022-09-28T04:41:51.334Z,4.15
2022-09-28T04:44:19.542Z,1.27
2022-09-28T04:46:48.987Z,2.10
2022-09-28T04:49:29.112Z,0.85
2022-09-28T04:52:06.730Z,2.60
2022-09-28T04:54:36.202Z,1.58
2022-09-28T04:57:06.133Z,1.98
2022-09-28T04:59:34.595Z,0.90
2022-09-28T05:02:03.658Z,1.67
2022-09-28T05:04:50.354Z,1.17
2022-09-28T05:07:51.971Z,1.48
2022-09-28T05:10:21.095Z,0.75
2022-09-28T05:12:48.439Z,1.23
2022-09-28T05:15:17.413Z,2.15
2022-09-28T05:17:44.879Z,0.50
2022-09-28T05:20:30.284Z,0.88
2022-09-28T05:22:59.259Z,0.73
2022-09-28T05:25:26.714Z,1.00
2022-09-28T05:28:05.898Z,1.52
2022-09-28T05:33:33.390Z,0.93
2022-09-28T05:36:12.826Z,3.78
2022-09-28T05:38:40.553Z,1.90
2022-09-28T05:41:07.985Z,2.10
2022-09-28T05:43:36.537Z,3.45
2022-09-28T05:46:08.051Z,2.42
2022-09-28T05:48:39.631Z,1.05
2022-09-28T05:51:07.981Z,1.52
2022-09-28T05:53:35.480Z,3.13
2022-09-28T05:56:05.318Z,2.80
2022-09-28T05:58:34.081Z,2.30
2022-09-28T06:01:01.996Z,1.73
2022-09-28T06:03:31.054Z,5.20
2022-09-28T06:06:01.852Z,2.72
2022-09-28T06:08:34.851Z,3.92
2022-09-28T06:11:24.702Z,2.03
2022-09-28T06:13:57.153Z,1.67
2022-09-28T06:16:27.739Z,1.85
2022-09-28T06:18:55.183Z,1.77
2022-09-28T06:21:53.144Z,1.45
2022-09-28T06:24:21.887Z,3.45
2022-09-28T06:26:49.719Z,2.15
2022-09-28T06:29:21.025Z,2.28
2022-09-28T06:31:48.951Z,1.83
2022-09-28T06:34:19.191Z,1.42
2022-09-28T06:36:47.643Z,3.00
2022-09-28T06:39:15.446Z,1.10
2022-09-28T06:41:44.164Z,3.80
2022-09-28T06:44:16.961Z,2.75
2022-09-28T06:46:53.335Z,3.35
2022-09-28T06:49:37.791Z,3.67
2022-09-28T06:52:37.934Z,2.22
2022-09-28T06:55:49.269Z,5.45
2022-09-28T06:58:20.796Z,3.90
2022-09-28T07:00:51.919Z,4.85
2022-09-28T07:03:23.023Z,5.90
2022-09-28T07:06:12.751Z,8.32
2022-09-28T07:09:30.388Z,4.88
2022-09-28T07:12:26.498Z,4.43
2022-09-28T07:14:58.500Z,5.85
2022-09-28T07:17:28.890Z,3.30
2022-09-28T07:20:09.481Z,5.80
2022-09-28T07:22:43.375Z,4.50
2022-09-28T07:25:17.263Z,3.78
2022-09-28T07:27:50.408Z,4.30
2022-09-28T07:30:34.984Z,2.65
2022-09-28T07:33:16.053Z,4.65
2022-09-28T07:35:55.486Z,7.38
2022-09-28T07:38:28.341Z,2.55
2022-09-28T07:41:11.863Z,2.58
2022-09-28T07:43:49.559Z,3.22
2022-09-28T07:46:17.885Z,4.35
2022-09-28T07:48:57.163Z,2.70
2022-09-28T07:51:34.195Z,6.22
2022-09-28T07:56:58.166Z,2.53
2022-09-28T07:59:38.703Z,5.88
2022-09-28T08:02:45.855Z,3.50
2022-09-28T08:05:21.429Z,5.07
2022-09-28T08:07:50.134Z,4.15
2022-09-28T08:10:20.353Z,6.20
2022-09-28T08:13:06.458Z,3.13
2022-09-28T08:15:38.248Z,7.35
2022-09-28T08:18:25.043Z,7.32
2022-09-28T08:21:15.214Z,7.05
2022-09-28T08:23:44.330Z,5.90
2022-09-28T08:26:15.353Z,2.10
2022-09-28T08:28:46.915Z,3.85
2022-09-28T08:31:33.188Z,7.63
2022-09-28T08:34:17.625Z,4.80
2022-09-28T08:37:15.394Z,5.78
2022-09-28T08:39:43.197Z,4.40
2022-09-28T08:42:37.787Z,7.80
2022-09-28T08:45:28.881Z,6.07
2022-09-28T08:48:56.918Z,5.95
2022-09-28T08:52:18.895Z,5.53
2022-09-28T08:55:35.965Z,7.95
2022-09-28T08:58:10.433Z,3.13
2022-09-28T09:00:52.300Z,6.47
2022-09-28T09:03:38.109Z,7.43
2022-09-28T09:06:46.506Z,7.07
2022-09-28T09:10:03.729Z,4.78
2022-09-28T09:13:12.510Z,5.18
2022-09-28T09:15:52.358Z,4.90
2022-09-28T09:18:54.000Z,3.47
2022-09-28T09:22:04.329Z,3.08
2022-09-28T09:24:48.815Z,2.47
2022-09-28T09:27:37.675Z,6.93
2022-09-28T09:30:19.441Z,4.80
2022-09-28T09:33:10.996Z,3.78
2022-09-28T09:36:12.137Z,7.97
2022-09-28T09:39:04.119Z,5.57
2022-09-28T09:42:11.789Z,3.97
2022-09-28T09:45:25.461Z,7.22
2022-09-28T09:48:27.043Z,4.03
2022-09-28T09:51:01.209Z,6.97
2022-09-28T09:53:39.107Z,8.48
2022-09-28T09:56:36.403Z,7.63
2022-09-28T09:59:24.423Z,8.20
2022-09-28T10:02:22.655Z,4.80
2022-09-28T10:05:24.369Z,7.88
2022-09-28T10:08:09.291Z,7.65
2022-09-28T10:10:46.274Z,5.95
2022-09-28T10:13:14.810Z,5.40
2022-09-28T10:15:47.605Z,9.18
2022-09-28T10:21:07.198Z,4.40
2022-09-28T10:24:04.841Z,14.07
2022-09-28T10:26:42.167Z,6.85
2022-09-28T10:29:21.357Z,3.15
2022-09-28T10:31:52.457Z,3.35
2022-09-28T10:34:31.562Z,3.83
2022-09-28T10:37:11.591Z,8.32
2022-09-28T10:40:31.509Z,7.82
2022-09-28T10:43:02.268Z,13.27
2022-09-28T10:45:37.842Z,8.93
2022-09-28T10:48:19.112Z,5.10
2022-09-28T10:51:10.944Z,5.90
2022-09-28T10:53:40.028Z,7.65
2022-09-28T10:56:22.913Z,8.77
2022-09-28T10:59:37.517Z,10.05
2022-09-28T11:02:26.530Z,4.35
2022-09-28T11:05:01.825Z,3.08
2022-09-28T11:07:46.529Z,6.45
2022-09-28T11:10:31.563Z,6.53
2022-09-28T11:13:10.016Z,5.82
2022-09-28T11:15:43.901Z,7.85
2022-09-28T11:18:32.841Z,5.55
2022-09-28T11:21:16.870Z,7.75
2022-09-28T11:24:19.492Z,5.45
2022-09-28T11:26:50.978Z,7.32
2022-09-28T11:29:51.763Z,8.57
2022-09-28T11:32:43.473Z,3.95
2022-09-28T11:35:25.360Z,6.25
2022-09-28T11:37:54.243Z,4.90
2022-09-28T11:41:18.826Z,5.38
2022-09-28T11:43:50.720Z,4.95
2022-09-28T11:46:26.862Z,5.93
2022-09-28T11:49:12.303Z,6.82
2022-09-28T11:51:45.648Z,3.67
2022-09-28T11:54:18.743Z,3.92
2022-09-28T11:56:51.639Z,4.68
2022-09-28T11:59:32.467Z,6.32
2022-09-28T12:02:36.593Z,5.20
2022-09-28T12:05:33.342Z,2.78
2022-09-28T12:08:17.403Z,3.53
2022-09-28T12:11:03.263Z,3.75
2022-09-28T12:14:08.359Z,4.13
2022-09-28T12:17:04.659Z,3.25
2022-09-28T12:19:42.891Z,8.52
2022-09-28T12:22:33.679Z,4.60
2022-09-28T12:25:03.989Z,5.40
2022-09-28T12:27:51.613Z,4.45
2022-09-28T12:30:21.716Z,3.47
2022-09-28T12:33:04.470Z,2.20
2022-09-28T12:35:53.471Z,6.60
2022-09-28T12:39:14.843Z,4.28
2022-09-28T12:42:06.792Z,1.95
2022-09-28T12:44:59.519Z,5.72
2022-09-28T12:47:56.459Z,7.65
2022-09-28T12:50:39.942Z,2.75
2022-09-28T12:53:25.957Z,5.63
2022-09-28T12:56:04.348Z,5.68
2022-09-28T12:59:13.253Z,3.75
2022-09-28T13:02:11.417Z,3.78
2022-09-28T13:04:39.283Z,1.48
2022-09-28T13:07:07.347Z,6.32
2022-09-28T13:09:53.267Z,5.38
2022-09-28T13:12:56.939Z,3.15
2022-09-28T13:15:49.201Z,3.33
2022-09-28T13:18:29.283Z,6.43
2022-09-28T13:21:04.995Z,5.88
2022-09-28T13:23:43.072Z,3.67
2022-09-28T13:26:30.597Z,1.98
2022-09-28T13:29:09.757Z,2.92
2022-09-28T13:31:46.583Z,2.28
2022-09-28T13:34:22.517Z,5.20
2022-09-28T13:37:11.078Z,5.00
2022-09-28T13:39:52.660Z,3.75
2022-09-28T13:42:37.472Z,4.80
2022-09-28T13:45:17.204Z,4.57
2022-09-28T13:48:18.072Z,5.85
2022-09-28T13:51:04.981Z,4.53
2022-09-28T13:56:36.138Z,5.32
2022-09-28T13:59:23.097Z,3.28
2022-09-28T14:02:02.885Z,8.75
2022-09-28T14:05:24.075Z,5.65
2022-09-28T14:08:34.710Z,6.63
2022-09-28T14:11:25.226Z,5.55
2022-09-28T14:14:13.735Z,5.50
2022-09-28T14:16:43.289Z,5.45
2022-09-28T14:19:19.713Z,5.68
2022-09-28T14:22:17.627Z,6.88
2022-09-28T14:25:12.380Z,8.75
2022-09-28T14:28:10.272Z,5.30
2022-09-28T14:30:44.722Z,4.88
2022-09-28T14:33:23.027Z,13.82
2022-09-28T14:35:56.575Z,3.80
2022-09-28T14:38:51.647Z,6.75
2022-09-28T14:41:28.918Z,6.78
2022-09-28T14:44:13.948Z,5.55
2022-09-28T14:46:48.551Z,5.68
2022-09-28T14:49:21.360Z,3.08
2022-09-28T14:51:49.231Z,6.45
2022-09-28T14:54:21.837Z,3.67
2022-09-28T14:57:08.538Z,3.70
2022-09-28T14:59:43.982Z,6.90
2022-09-28T15:02:17.383Z,5.35
2022-09-28T15:05:00.213Z,5.45
2022-09-28T15:07:33.431Z,5.18
2022-09-28T15:10:02.740Z,6.18
2022-09-28T15:12:31.517Z,7.20
2022-09-28T15:15:05.634Z,4.43
2022-09-28T15:17:40.040Z,7.60
2022-09-28T15:20:20.873Z,7.10
2022-09-28T15:22:51.890Z,6.20
2022-09-28T15:25:22.106Z,4.05
2022-09-28T15:27:58.186Z,10.93
2022-09-28T15:30:31.904Z,10.18
2022-09-28T15:33:21.600Z,7.65
2022-09-28T15:36:03.410Z,6.57
2022-09-28T15:38:34.155Z,4.65
2022-09-28T15:41:10.050Z,8.27
2022-09-28T15:43:38.082Z,16.95
2022-09-28T15:46:21.218Z,10.05
2022-09-28T15:48:56.302Z,4.97
2022-09-28T15:51:28.515Z,7.63
2022-09-28T15:54:16.452Z,8.27
2022-09-28T15:57:04.300Z,7.82
2022-09-28T15:59:37.125Z,10.07
2022-09-28T16:02:21.927Z,10.48
2022-09-28T16:04:54.202Z,7.60
2022-09-28T16:07:42.083Z,6.13
2022-09-28T16:10:13.797Z,9.68
2022-09-28T16:12:42.013Z,10.90
2022-09-28T16:15:27.980Z,6.40
2022-09-28T16:18:03.123Z,4.55
2022-09-28T16:20:41.019Z,4.35
2022-09-28T16:23:09.985Z,7.30
2022-09-28T16:25:39.535Z,7.78
2022-09-28T16:28:12.613Z,6.25
2022-09-28T16:30:59.750Z,7.55
2022-09-28T16:33:30.665Z,7.32
2022-09-28T16:36:03.518Z,7.10
2022-09-28T16:38:31.733Z,7.35
2022-09-28T16:41:02.886Z,9.88
2022-09-28T16:43:32.959Z,8.25
2022-09-28T16:46:14.928Z,11.65
2022-09-28T16:48:51.231Z,7.95
2022-09-28T16:51:21.227Z,7.75
2022-09-28T16:54:08.118Z,7.63
2022-09-28T16:59:04.452Z,5.10
2022-09-28T17:01:33.222Z,6.65
2022-09-28T17:04:01.467Z,8.15
2022-09-28T17:06:32.784Z,8.27
2022-09-28T17:09:07.187Z,10.77
2022-09-28T17:11:35.524Z,14.95
2022-09-28T17:14:03.504Z,10.52
2022-09-28T17:16:57.628Z,10.65
2022-09-28T17:19:25.796Z,16.67
2022-09-28T17:21:54.411Z,12.35
2022-09-28T17:24:21.933Z,4.82
2022-09-28T17:26:52.253Z,5.78
2022-09-28T17:29:20.558Z,5.05
2022-09-28T17:31:48.303Z,6.95
2022-09-28T17:34:16.782Z,9.85
2022-09-28T17:36:45.885Z,5.40
2022-09-28T17:39:15.223Z,7.15
2022-09-28T17:41:43.187Z,8.40
2022-09-28T17:44:10.876Z,5.60
2022-09-28T17:46:47.423Z,9.95
2022-09-28T17:49:18.722Z,6.93
2022-09-28T17:51:46.264Z,4.22
2022-09-28T17:54:16.849Z,4.82
2022-09-28T17:56:44.727Z,7.75
2022-09-28T17:59:19.032Z,3.03
2022-09-28T18:01:48.342Z,5.82
2022-09-28T18:04:39.682Z,4.00
2022-09-28T18:07:05.855Z,5.78
2022-09-28T18:09:33.235Z,5.05
2022-09-28T18:12:05.038Z,3.72
2022-09-28T18:14:32.528Z,2.92
2022-09-28T18:17:00.030Z,5.13
2022-09-28T18:19:32.016Z,4.32
2022-09-28T18:22:00.308Z,3.33
2022-09-28T18:24:27.667Z,4.85
2022-09-28T18:26:55.622Z,3.20
2022-09-28T18:29:23.131Z,4.90
2022-09-28T18:31:52.654Z,3.60
2022-09-28T18:34:20.125Z,4.43
2022-09-28T18:36:48.239Z,6.30
2022-09-28T18:39:15.645Z,7.13
2022-09-28T18:41:43.224Z,4.90
2022-09-28T18:44:11.483Z,5.30
2022-09-28T18:46:42.682Z,3.80
2022-09-28T18:49:10.083Z,5.45
2022-09-28T18:51:37.512Z,2.70
2022-09-28T18:56:38.102Z,6.18
2022-09-28T18:59:11.252Z,4.72
2022-09-28T19:01:41.777Z,6.25
2022-09-28T19:04:11.658Z,3.15
2022-09-28T19:06:42.547Z,4.55
2022-09-28T19:09:11.303Z,5.65
2022-09-28T19:11:38.735Z,5.63
2022-09-28T19:14:06.247Z,4.72
2022-09-28T19:16:36.782Z,5.00
2022-09-28T19:19:06.653Z,7.22
2022-09-28T19:21:34.165Z,17.95
2022-09-28T19:24:03.715Z,15.00
2022-09-28T19:26:32.898Z,11.93
2022-09-28T19:29:02.879Z,6.82
2022-09-28T19:31:31.039Z,6.18
2022-09-28T19:33:59.123Z,5.68
2022-09-28T19:36:28.657Z,7.22
2022-09-28T19:38:58.908Z,7.53
2022-09-28T19:42:00.993Z,8.98
2022-09-28T19:44:29.998Z,3.63
2022-09-28T19:47:00.203Z,3.92
2022-09-28T19:49:34.225Z,3.50
2022-09-28T19:52:12.844Z,7.35
2022-09-28T19:54:57.680Z,5.22
2022-09-28T19:57:31.762Z,5.03
2022-09-28T20:00:03.503Z,6.07
2022-09-28T20:02:36.908Z,6.38
2022-09-28T20:05:06.918Z,5.10
2022-09-28T20:07:36.179Z,1.88
2022-09-28T20:10:05.260Z,3.72
2022-09-28T20:12:33.395Z,2.75
2022-09-28T20:15:01.276Z,3.38
2022-09-28T20:17:29.479Z,4.18
2022-09-28T20:20:00.016Z,4.60
2022-09-28T20:22:27.534Z,4.50
2022-09-28T20:24:54.964Z,3.60
2022-09-28T20:27:26.469Z,2.72
2022-09-28T20:29:55.235Z,3.33
2022-09-28T20:32:24.035Z,1.40
2022-09-28T20:34:52.973Z,2.42
2022-09-28T20:37:20.369Z,3.00
2022-09-28T20:39:47.846Z,5.43
2022-09-28T20:42:15.852Z,3.63
2022-09-28T20:44:44.607Z,5.57
2022-09-28T20:47:11.993Z,4.70
2022-09-28T20:49:40.178Z,2.65
2022-09-28T20:52:07.629Z,3.85
2022-09-28T20:54:38.182Z,3.50
2022-09-28T20:57:17.521Z,2.60
2022-09-28T20:59:53.759Z,4.40
2022-09-28T21:02:23.129Z,4.55
2022-09-28T21:04:50.686Z,2.92
2022-09-28T21:07:20.563Z,3.90
2022-09-28T21:09:48.910Z,2.88
2022-09-28T21:12:16.541Z,4.28
2022-09-28T21:14:43.945Z,2.60
2022-09-28T21:17:12.792Z,3.25
2022-09-28T21:19:40.684Z,4.38
2022-09-28T21:22:09.311Z,4.18
2022-09-28T21:24:37.153Z,5.40
2022-09-28T21:27:04.627Z,6.45
2022-09-28T21:32:00.259Z,4.35
2022-09-28T21:34:30.293Z,11.45
2022-09-28T21:36:58.679Z,8.48
2022-09-28T21:39:27.595Z,8.73
2022-09-28T21:41:55.030Z,6.78
2022-09-28T21:44:22.447Z,7.88
2022-09-28T21:46:51.451Z,6.93
2022-09-28T21:49:19.968Z,6.15
2022-09-28T21:51:47.770Z,6.00
2022-09-28T21:56:42.943Z,3.88
2022-09-28T22:01:38.152Z,5.40
2022-09-28T22:04:06.083Z,14.90
2022-09-28T22:06:35.526Z,6.45
2022-09-28T22:09:02.999Z,3.50
2022-09-28T22:11:30.530Z,3.83
2022-09-28T22:13:59.530Z,8.68
2022-09-28T22:16:31.666Z,6.80
2022-09-28T22:19:00.539Z,3.78
2022-09-28T22:21:30.307Z,5.15
2022-09-28T22:24:01.107Z,5.85
2022-09-28T22:26:31.798Z,5.55
2022-09-28T22:29:01.728Z,8.20
2022-09-28T22:31:32.835Z,4.72
2022-09-28T22:34:02.012Z,5.65
2022-09-28T22:36:32.288Z,6.90
2022-09-28T22:39:00.521Z,7.63
2022-09-28T22:41:28.508Z,6.18
2022-09-28T22:43:56.399Z,7.53
2022-09-28T22:46:27.231Z,4.07
2022-09-28T22:48:58.742Z,5.45
2022-09-28T22:51:27.641Z,5.15
2022-09-28T22:53:56.755Z,6.18
2022-09-28T22:56:24.959Z,3.90
2022-09-28T22:58:55.592Z,5.25
2022-09-28T23:01:28.400Z,5.13
2022-09-28T23:03:57.926Z,4.15
2022-09-28T23:06:27.862Z,3.03
2022-09-28T23:08:56.094Z,7.88
2022-09-28T23:11:24.475Z,7.63
2022-09-28T23:13:56.623Z,3.28
2022-09-28T23:16:26.750Z,4.65
2022-09-28T23:18:55.727Z,7.30
2022-09-28T23:21:25.918Z,7.15
2022-09-28T23:24:01.030Z,5.85
2022-09-28T23:26:34.292Z,5.78
2022-09-28T23:29:01.756Z,4.13
2022-09-28T23:34:05.507Z,3.55
2022-09-28T23:36:35.173Z,3.80
2022-09-28T23:39:04.333Z,3.55
2022-09-28T23:41:31.776Z,4.65
2022-09-28T23:46:27.005Z,6.28
2022-09-28T23:48:56.108Z,2.45
2022-09-28T23:51:25.204Z,3.08
2022-09-28T23:53:52.771Z,6.10
2022-09-28T23:56:21.718Z,4.22
2022-09-28T23:58:49.076Z,5.82
